Station: Geraldton Airport  

  Atmospheric Gas Attenuation - ITU Rec 676-11   ----------------- dB/100km -----------------
Date Time Temp RH % AH g/m3 Dew Point Wind Direction Speed kph Gust kph Barometer mB Rainfall Since 9am 24GHz 47GHz 76GHz 122GHz 134GHz 241GHz
08/05 18:20 20.9 27 4.92 1.2 19 20 1021.8 0 11.6 19.1 24.2 62.8 49.0 166.0
08/05 18:10 21.4 26 4.87 1.1 17 19 1021.7 0 11.4 19.0 23.9 61.9 48.2 163.2
08/05 18:00 22.2 25 4.91 1.3 17 20 1021.6 0 11.5 18.8 23.8 61.7 48.2 163.1
08/05 17:50 22.8 24 4.88 1.2 17 19 1021.5 0 11.4 18.7 23.5 61.0 47.5 160.8
08/05 17:40 24 22 4.79 1 20 22 1021.3 0 11.2 18.3 22.9 59.4 45.9 155.3
08/05 17:30 24.3 22 4.87 1.2 20 28 1021.3 0 11.3 18.4 23.1 59.8 46.5 157.6
08/05 17:20 25.2 21 4.89 1.3 22 26 1021.1 0 11.4 18.2 22.9 59.3 46.2 156.6
08/05 17:10 25.6 21 5 1.7 19 20 1021.1 0 11.6 18.3 23.1 59.9 47.1 159.7
08/05 17:00 26 21 5.11 2 20 30 1021.1 0 11.8 18.3 23.3 60.5 48.0 162.8
08/05 16:50 26.3 20 4.95 1.6 22 26 1021 0 11.5 18.1 22.8 59.0 46.2 156.7
08/05 16:40 26.6 20 5.03 1.8 20 24 1020.9 0 11.6 18.1 22.9 59.5 46.8 158.9
08/05 16:30 26.6 20 5.03 1.8 20 28 1021 0 11.6 18.1 22.9 59.5 46.8 158.9
08/05 16:20 26.8 18 4.58 0.5 20 24 1021 0 10.7 17.6 21.6 55.8 42.4 143.1
08/05 16:10 27 17 4.38 -0.1 26 30 1020.9 0 10.3 17.3 20.9 54.1 40.3 136.0
08/05 16:00 27.1 18 4.66 0.8 26 35 1020.9 0 10.8 17.6 21.7 56.2 43.0 145.3
08/05 15:50 27.1 18 4.66 0.8 17 20 1021 0 10.8 17.6 21.7 56.2 43.0 145.3
08/05 15:40 27.3 19 4.97 1.7 30 39 1020.9 0 11.5 17.9 22.6 58.5 45.9 155.5
08/05 15:30 27.3 20 5.23 2.4 24 35 1021 0 12.0 18.2 23.3 60.6 48.4 164.4
08/05 15:20 26.9 21 5.37 2.7 20 24 1021 0 12.3 18.5 23.9 62.0 50.0 170.1
08/05 15:10 26.9 20 5.12 2.1 13 15 1021.1 0 11.8 18.2 23.1 60.0 47.6 161.4
08/05 15:00 27.2 21 5.46 3 19 32 1021 0 12.5 18.5 24.1 62.5 50.7 172.6
08/05 14:50 26.9 20 5.12 2.1 26 30 1021.1 0 11.8 18.2 23.1 60.0 47.6 161.4
08/05 14:40 27.4 21 5.53 3.2 24 26 1021.2 0 12.6 18.6 24.2 62.9 51.3 174.7
08/05 14:30 27 21 5.4 2.8 20 33 1021.3 0 12.4 18.5 23.9 62.1 50.3 171.0
08/05 14:20 26.7 22 5.57 3.2 15 22 1021.3 0 12.7 18.8 24.5 63.7 52.1 177.6
08/05 14:10 27.4 21 5.53 3.2 26 33 1021.2 0 12.6 18.6 24.2 62.9 51.3 174.7
08/05 14:00 26.8 22 5.6 3.3 17 28 1021.4 0 12.8 18.8 24.6 63.9 52.4 178.4
08/05 13:50 26.9 22 5.63 3.4 19 24 1021.5 0 12.8 18.8 24.7 64.1 52.6 179.3
08/05 13:40 26.4 22 5.48 3 11 13 1021.6 0 12.5 18.7 24.4 63.3 51.4 175.1
08/05 13:30 27.1 22 5.69 3.6 19 28 1021.7 0 13.0 18.9 24.8 64.4 53.1 181.0
08/05 13:20 26.8 23 5.85 4 20 26 1021.7 0 13.3 19.1 25.4 66.0 54.9 187.3
08/05 13:10 26.1 24 5.88 4 20 24 1021.9 0 13.4 19.3 25.7 66.8 55.7 190.0
08/05 13:00 26.8 23 5.85 4 28 37 1022 0 13.3 19.1 25.4 66.0 54.9 187.4
08/05 12:50 26.1 24 5.88 4 26 28 1022.1 0 13.4 19.3 25.7 66.8 55.7 190.0
08/05 12:40 26.3 25 6.19 4.7 28 33 1022.4 0 14.0 19.7 26.6 69.2 58.8 200.8
08/05 12:30 26.5 25 6.26 4.9 30 41 1022.6 0 14.1 19.7 26.8 69.7 59.3 202.9
08/05 12:20 25.7 26 6.22 4.8 30 35 1022.7 0 14.1 19.8 26.9 70.0 59.5 203.4
08/05 12:10 25.8 26 6.26 4.9 33 37 1023 0 14.2 19.9 27.0 70.3 59.9 204.6
08/05 12:00 25.3 27 6.32 5 30 41 1023.2 0 14.3 20.1 27.4 71.2 60.9 208.1
08/05 11:50 25.7 28 6.7 5.8 28 32 1023.5 0 15.1 20.5 28.4 74.1 64.6 221.2
08/05 11:40 25.3 28 6.55 5.5 33 37 1023.7 0 14.8 20.4 28.1 73.2 63.3 216.7
08/05 11:30 25.2 29 6.75 5.9 28 39 1023.9 0 15.2 20.7 28.8 75.1 65.5 224.5
08/05 11:20 25 30 6.91 6.2 32 39 1024 0 15.5 20.9 29.4 76.6 67.4 231.1
08/05 11:10 24.1 30 6.56 5.5 33 39 1024.3 0 14.9 20.7 28.6 74.4 64.4 220.4
08/05 11:00 23.7 31 6.63 5.6 35 44 1024.3 0 15.0 20.9 28.9 75.4 65.5 224.1
08/05 10:50 23.8 31 6.67 5.7 32 35 1024.5 0 15.1 20.9 29.0 75.7 65.8 225.4
08/05 10:40 23.1 32 6.61 5.5 33 37 1024.6 0 15.0 21.0 29.1 75.8 65.7 225.0
08/05 10:30 23.2 32 6.65 5.6 35 44 1024.7 0 15.1 21.0 29.2 76.1 66.1 226.3
08/05 10:20 23.1 33 6.82 6 35 39 1024.8 0 15.4 21.3 29.8 77.7 68.1 233.1
08/05 10:10 22.5 33 6.59 5.4 37 39 1025 0 15.0 21.1 29.2 76.2 66.0 225.9
08/05 10:00 22.3 34 6.71 5.7 35 48 1025.1 0 15.2 21.3 29.7 77.5 67.5 231.2
08/05 09:50 22.2 35 6.87 6 37 43 1025.2 0 15.6 21.6 30.3 79.0 69.4 237.7
08/05 09:40 21.8 36 6.91 6.1 33 37 1025.1 0 15.7 21.7 30.6 79.8 70.2 240.4
08/05 09:30 21.1 37 6.82 5.9 39 50 1025 0 15.5 21.7 30.5 79.6 69.8 238.9
08/05 09:20 21 38 6.96 6.2 37 41 1025.1 0 15.8 22.0 31.0 81.0 71.5 244.8
08/05 09:10 20.5 40 7.12 6.4 37 43 1025.1 0 16.2 22.3 31.8 83.0 73.7 252.7
08/05 09:00 20 41 7.08 6.4 37 54 1025.1 0 16.1 22.4 31.8 83.1 73.7 252.7
08/05 08:50 19.7 41 6.96 6.1 41 48 1025.2 0 15.9 22.3 31.5 82.3 72.6 248.7
08/05 08:40 19.3 43 7.13 6.4 30 41 1025.2 0 16.2 22.6 32.3 84.3 75.0 256.9
08/05 08:30 18.7 45 7.2 6.5 37 48 1025.1 0 16.4 22.9 32.8 85.6 76.3 261.7
08/05 08:20 18.3 46 7.19 6.5 37 41 1025 0 16.4 22.9 32.9 85.9 76.6 262.5
08/05 08:10 17.8 47 7.13 6.3 35 41 1025 0 16.3 23.0 32.9 85.9 76.4 261.7
08/05 08:00 17.5 49 7.3 6.7 37 46 1024.9 0 16.7 23.3 33.6 87.8 78.7 269.8
08/05 07:50 17.1 50 7.28 6.6 39 44 1024.9 0 16.6 23.4 33.7 88.1 78.8 270.3
08/05 07:40 16.7 51 7.25 6.5 35 41 1024.9 0 16.6 23.4 33.8 88.2 78.9 270.3
08/05 07:30 16.4 52 7.26 6.5 32 41 1024.9 0 16.6 23.5 33.9 88.6 79.3 271.8
08/05 07:20 16.1 53 7.26 6.5 32 33 1024.8 0 16.6 23.6 34.0 89.0 79.6 272.8
08/05 07:10 15.9 53 7.18 6.3 26 32 1024.7 0 16.5 23.5 33.8 88.4 78.8 270.0
08/05 07:00 15.8 54 7.27 6.5 30 41 1024.5 0 16.7 23.7 34.2 89.4 80.0 274.1
08/05 06:50 15.8 54 7.27 6.5 32 37 1024.4 0 16.7 23.7 34.2 89.4 80.0 274.1
08/05 06:40 15.7 54 7.22 6.4 26 32 1024.4 0 16.6 23.6 34.1 89.0 79.5 272.3
08/05 06:30 15.9 53 7.18 6.3 28 39 1024.2 0 16.5 23.5 33.8 88.3 78.8 269.9
08/05 06:20 16.1 53 7.26 6.5 26 32 1024.2 0 16.6 23.6 34.0 88.9 79.6 272.6
08/05 06:10 16.3 52 7.21 6.4 30 35 1024.2 0 16.5 23.4 33.8 88.2 78.7 269.8
08/05 06:00 16.3 52 7.21 6.4 30 43 1024 0 16.5 23.4 33.7 88.2 78.7 269.8
08/05 05:50 16.2 52 7.17 6.3 32 43 1023.9 0 16.4 23.4 33.6 87.9 78.3 268.4
08/05 05:40 16.3 52 7.21 6.4 30 33 1023.8 0 16.5 23.4 33.7 88.2 78.7 269.7
08/05 05:30 16.4 52 7.26 6.5 32 41 1023.7 0 16.6 23.5 33.9 88.5 79.2 271.5
08/05 05:20 16.4 52 7.26 6.5 32 37 1023.6 0 16.6 23.5 33.9 88.5 79.2 271.5
08/05 05:10 16.4 51 7.12 6.2 35 41 1023.5 0 16.3 23.3 33.4 87.1 77.5 265.5
08/05 05:00 16.6 51 7.2 6.4 35 44 1023.5 0 16.5 23.3 33.6 87.7 78.3 268.2
08/05 04:50 16.8 50 7.15 6.3 37 43 1023.4 0 16.4 23.2 33.3 87.0 77.5 265.4
08/05 04:40 16.8 50 7.15 6.3 37 43 1023.3 0 16.4 23.2 33.3 87.0 77.5 265.4
08/05 04:30 16.8 50 7.15 6.3 37 46 1023.3 0 16.4 23.2 33.3 87.0 77.5 265.4
08/05 04:20 17.1 48 6.99 6 37 46 1023.1 0 16.0 22.9 32.6 85.1 75.2 257.6
08/05 04:10 17.4 47 6.96 6 41 46 1022.9 0 15.9 22.8 32.3 84.5 74.6 255.4
08/05 04:00 17.5 47 7.01 6.1 43 57 1022.8 0 16.0 22.8 32.5 84.8 75.1 257.1
08/05 03:50 17.4 47 6.96 6 39 46 1022.9 0 15.9 22.8 32.3 84.5 74.6 255.4
08/05 03:40 17.5 47 7.01 6.1 41 48 1022.8 0 16.0 22.8 32.5 84.8 75.1 257.1
08/05 03:30 17.5 47 7.01 6.1 39 50 1022.9 0 16.0 22.8 32.5 84.8 75.1 257.1
08/05 03:20 17.5 47 7.01 6.1 39 43 1023.1 0 16.0 22.8 32.5 84.8 75.1 257.2
08/05 03:10 17.7 46 6.94 5.9 39 43 1023.2 0 15.9 22.7 32.2 84.0 74.1 253.7
08/05 03:00 17.8 46 6.98 6 39 46 1023.3 0 16.0 22.7 32.3 84.3 74.5 255.0
08/05 02:50 17.6 46 6.9 5.9 35 41 1023.5 0 15.8 22.6 32.1 83.7 73.7 252.4
08/05 02:40 17.5 45 6.71 5.4 35 39 1023.5 0 15.4 22.4 31.4 82.0 71.6 244.8
08/05 02:30 17.4 45 6.67 5.4 33 43 1023.5 0 15.3 22.4 31.3 81.7 71.2 243.4
08/05 02:20 17.6 44 6.6 5.2 33 41 1023.6 0 15.2 22.2 31.0 80.9 70.2 240.0
08/05 02:10 17.4 44 6.52 5 32 37 1023.7 0 15.0 22.1 30.8 80.3 69.4 237.3
08/05 02:00 17.4 44 6.52 5 28 35 1023.8 0 15.0 22.1 30.8 80.3 69.4 237.3
08/05 01:50 17.5 44 6.56 5.1 30 35 1023.8 0 15.1 22.2 30.9 80.6 69.8 238.7

Last Refresh: 08-May-2026 19:59:26

Bureau of Meteorology